Time,TemperatureF,DewpointF,PressureIn,WindDirection,WindDirectionDegrees,WindSpeedMPH,WindSpeedGustMPH,Humidity,HourlyPrecipIn,Conditions,Clouds,dailyrainin,SoftwareType,DateUTC
2013-01-21 00:11:00,49.9,43.0,30.11,NW,310,0.0,-999.0,77,-99.99,,,0.00,weatherlink.com 1.10,2013-01-21 05:11:00,
2013-01-21 00:26:00,49.5,43.0,30.11,NW,307,0.0,-999.0,78,-99.99,,,0.00,weatherlink.com 1.10,2013-01-21 05:26:00,
2013-01-21 00:41:00,48.8,42.0,30.10,NW,317,0.0,-999.0,76,-99.99,,,0.00,weatherlink.com 1.10,2013-01-21 05:41:00,
2013-01-21 00:56:00,48.7,41.0,30.10,NW,320,0.0,-999.0,76,-99.99,,,0.00,weatherlink.com 1.10,2013-01-21 05:56:00,
2013-01-21 01:11:00,48.4,41.0,30.10,NW,320,0.0,-999.0,75,-99.99,,,0.00,weatherlink.com 1.10,2013-01-21 06:11:00,
2013-01-21 01:26:00,48.1,41.0,30.10,NW,324,0.0,-999.0,75,-99.99,,,0.00,weatherlink.com 1.10,2013-01-21 06:26:00,
2013-01-21 01:41:00,48.0,40.0,30.10,NNW,329,0.0,-999.0,75,-99.99,,,0.00,weatherlink.com 1.10,2013-01-21 06:41:00,
2013-01-21 01:56:00,47.7,40.0,30.10,NNW,348,0.0,-999.0,75,-99.99,,,0.00,weatherlink.com 1.10,2013-01-21 06:56:00,
2013-01-21 02:11:00,47.3,40.0,30.10,North,11,0.0,-999.0,76,-99.99,,,0.00,weatherlink.com 1.10,2013-01-21 07:11:00,
2013-01-21 02:26:00,46.7,40.0,30.10,North,5,0.0,-999.0,77,-99.99,,,0.00,weatherlink.com 1.10,2013-01-21 07:26:00,
2013-01-21 02:41:00,46.5,40.0,30.10,NNE,24,0.0,-999.0,77,-99.99,,,0.00,weatherlink.com 1.10,2013-01-21 07:41:00,
2013-01-21 02:56:00,46.1,40.0,30.10,NNE,15,0.0,-999.0,78,-99.99,,,0.00,weatherlink.com 1.10,2013-01-21 07:56:00,
2013-01-21 03:26:00,45.8,39.0,30.10,North,5,0.0,-999.0,76,-99.99,,,0.00,weatherlink.com 1.10,2013-01-21 08:26:00,
2013-01-21 03:41:00,45.6,38.0,30.09,NNE,16,0.0,-999.0,76,-99.99,,,0.00,weatherlink.com 1.10,2013-01-21 08:41:00,
2013-01-21 03:56:00,45.5,38.0,30.10,North,5,0.0,-999.0,75,-99.99,,,0.00,weatherlink.com 1.10,2013-01-21 08:56:00,
2013-01-21 04:11:00,45.5,38.0,30.09,NNE,16,0.0,-999.0,74,-99.99,,,0.00,weatherlink.com 1.10,2013-01-21 09:11:00,
2013-01-21 04:26:00,46.0,37.0,30.09,NNE,20,0.0,-999.0,72,-99.99,,,0.00,weatherlink.com 1.10,2013-01-21 09:26:00,
2013-01-21 04:56:00,45.9,37.0,30.09,NNE,17,0.0,-999.0,70,-99.99,,,0.00,weatherlink.com 1.10,2013-01-21 09:56:00,
2013-01-21 05:11:00,45.6,37.0,30.09,NNE,15,0.0,-999.0,71,-99.99,,,0.00,weatherlink.com 1.10,2013-01-21 10:11:00,
2013-01-21 05:26:00,45.5,37.0,30.09,NNE,18,0.0,-999.0,72,-99.99,,,0.00,weatherlink.com 1.10,2013-01-21 10:26:00,
2013-01-21 05:41:00,45.3,37.0,30.09,NE,44,0.0,-999.0,73,-99.99,,,0.00,weatherlink.com 1.10,2013-01-21 10:41:00,
2013-01-21 06:56:00,43.8,37.0,30.10,NE,37,0.0,-999.0,78,-99.99,,,0.00,weatherlink.com 1.10,2013-01-21 11:56:00,
2013-01-21 07:11:00,43.5,37.0,30.10,NNE,26,0.0,-999.0,78,-99.99,,,0.00,weatherlink.com 1.10,2013-01-21 12:11:00,
2013-01-21 07:26:00,43.8,37.0,30.11,NNE,22,0.0,-999.0,77,-99.99,,,0.00,weatherlink.com 1.10,2013-01-21 12:26:00,
2013-01-21 07:41:00,44.3,37.0,30.10,NE,46,0.0,-999.0,76,-99.99,,,0.00,weatherlink.com 1.10,2013-01-21 12:41:00,
2013-01-21 07:56:00,44.9,37.0,30.10,NE,43,0.0,-999.0,75,-99.99,,,0.00,weatherlink.com 1.10,2013-01-21 12:56:00,
2013-01-21 08:11:00,46.0,38.0,30.10,NNE,26,0.0,-999.0,73,-99.99,,,0.00,weatherlink.com 1.10,2013-01-21 13:11:00,
2013-01-21 08:26:00,46.8,38.0,30.11,NE,44,0.0,-999.0,72,-99.99,,,0.00,weatherlink.com 1.10,2013-01-21 13:26:00,
2013-01-21 08:41:00,48.3,39.0,30.11,NE,55,0.0,-999.0,71,-99.99,,,0.00,weatherlink.com 1.10,2013-01-21 13:41:00,
2013-01-21 08:56:00,50.2,40.0,30.11,NE,49,0.0,-999.0,68,-99.99,,,0.00,weatherlink.com 1.10,2013-01-21 13:56:00,
2013-01-21 09:11:00,51.2,41.0,30.11,ENE,71,0.0,-999.0,69,-99.99,,,0.00,weatherlink.com 1.10,2013-01-21 14:11:00,
2013-01-21 09:26:00,52.7,42.0,30.11,East,88,0.0,-999.0,66,-99.99,,,0.00,weatherlink.com 1.10,2013-01-21 14:26:00,
2013-01-21 09:42:00,53.5,42.0,30.11,ESE,108,0.0,-999.0,65,-99.99,,,0.00,weatherlink.com 1.10,2013-01-21 14:42:00,
2013-01-21 09:57:00,53.0,42.0,30.11,ESE,115,0.0,-999.0,66,-99.99,,,0.00,weatherlink.com 1.10,2013-01-21 14:57:00,
2013-01-21 10:12:00,53.3,43.0,30.11,ESE,114,0.0,-999.0,67,-99.99,,,0.00,weatherlink.com 1.10,2013-01-21 15:12:00,
2013-01-21 10:27:00,54.0,44.0,30.11,ESE,105,0.0,-999.0,68,-99.99,,,0.00,weatherlink.com 1.10,2013-01-21 15:27:00,
2013-01-21 10:42:00,54.3,45.0,30.10,ESE,105,0.0,-999.0,71,-99.99,,,0.00,weatherlink.com 1.10,2013-01-21 15:42:00,
2013-01-21 10:57:00,54.6,45.0,30.09,ESE,115,0.0,-999.0,71,-99.99,,,0.00,weatherlink.com 1.10,2013-01-21 15:57:00,
2013-01-21 11:12:00,55.0,46.0,30.09,ESE,120,0.0,-999.0,72,-99.99,,,0.00,weatherlink.com 1.10,2013-01-21 16:12:00,
2013-01-21 11:27:00,54.8,46.0,30.08,ESE,121,0.0,-999.0,72,-99.99,,,0.00,weatherlink.com 1.10,2013-01-21 16:27:00,
2013-01-21 11:42:00,55.3,46.0,30.07,ESE,121,0.0,-999.0,72,-99.99,,,0.00,weatherlink.com 1.10,2013-01-21 16:42:00,
2013-01-21 11:57:00,55.2,46.0,30.05,SW,236,0.0,-999.0,72,-99.99,,,0.00,weatherlink.com 1.10,2013-01-21 16:57:00,
2013-01-21 12:12:00,55.9,47.0,30.04,SW,236,0.0,-999.0,72,-99.99,,,0.00,weatherlink.com 1.10,2013-01-21 17:12:00,
2013-01-21 12:27:00,56.9,47.0,30.04,SSE,149,0.0,-999.0,70,-99.99,,,0.00,weatherlink.com 1.10,2013-01-21 17:27:00,
2013-01-21 12:42:00,58.5,48.0,30.03,SSW,208,0.0,-999.0,68,-99.99,,,0.00,weatherlink.com 1.10,2013-01-21 17:42:00,
2013-01-21 12:57:00,58.1,48.0,30.02,South,173,0.0,-999.0,69,-99.99,,,0.00,weatherlink.com 1.10,2013-01-21 17:57:00,
2013-01-21 13:12:00,57.9,48.0,30.01,South,178,0.0,-999.0,70,-99.99,,,0.00,weatherlink.com 1.10,2013-01-21 18:12:00,
2013-01-21 13:27:00,57.1,48.0,29.99,South,176,0.0,-999.0,71,-99.99,,,0.00,weatherlink.com 1.10,2013-01-21 18:27:00,
2013-01-21 13:42:00,57.4,48.0,29.99,South,176,0.0,-999.0,72,-99.99,,,0.00,weatherlink.com 1.10,2013-01-21 18:42:00,
2013-01-21 13:57:00,58.3,49.0,29.98,South,177,0.0,-999.0,71,-99.99,,,0.00,weatherlink.com 1.10,2013-01-21 18:57:00,
2013-01-21 14:12:00,57.8,49.0,29.97,South,177,0.0,-999.0,72,-99.99,,,0.00,weatherlink.com 1.10,2013-01-21 19:12:00,
2013-01-21 14:27:00,58.1,49.0,29.96,South,177,0.0,-999.0,73,-99.99,,,0.00,weatherlink.com 1.10,2013-01-21 19:27:00,
2013-01-21 14:42:00,57.7,50.0,29.96,South,177,0.0,-999.0,75,-99.99,,,0.00,weatherlink.com 1.10,2013-01-21 19:42:00,
2013-01-21 14:57:00,57.7,51.0,29.96,South,177,0.0,-999.0,77,-99.99,,,0.00,weatherlink.com 1.10,2013-01-21 19:57:00,
2013-01-21 15:12:00,57.5,51.0,29.95,South,177,0.0,-999.0,78,-99.99,,,0.00,weatherlink.com 1.10,2013-01-21 20:12:00,
2013-01-21 15:27:00,58.2,52.0,29.94,SSW,202,0.0,-999.0,79,-99.99,,,0.00,weatherlink.com 1.10,2013-01-21 20:27:00,
2013-01-21 15:42:00,58.4,52.0,29.94,SW,220,0.0,-999.0,79,-99.99,,,0.00,weatherlink.com 1.10,2013-01-21 20:42:00,
2013-01-21 15:57:00,58.7,53.0,29.94,SW,219,0.0,-999.0,80,-99.99,,,0.00,weatherlink.com 1.10,2013-01-21 20:57:00,
2013-01-21 16:12:00,58.5,52.0,29.93,SW,223,0.0,-999.0,79,-99.99,,,0.00,weatherlink.com 1.10,2013-01-21 21:12:00,
2013-01-21 16:27:00,58.1,52.0,29.93,SW,230,0.0,-999.0,79,-99.99,,,0.00,weatherlink.com 1.10,2013-01-21 21:27:00,
2013-01-21 16:42:00,57.5,51.0,29.93,WSW,238,0.0,-999.0,79,-99.99,,,0.00,weatherlink.com 1.10,2013-01-21 21:42:00,
2013-01-21 16:57:00,57.1,51.0,29.93,WSW,243,0.0,-999.0,80,-99.99,,,0.00,weatherlink.com 1.10,2013-01-21 21:57:00,
2013-01-21 17:12:00,56.8,51.0,29.92,SW,217,0.0,-999.0,80,-99.99,,,0.00,weatherlink.com 1.10,2013-01-21 22:12:00,
2013-01-21 17:27:00,56.8,51.0,29.93,SW,232,0.0,-999.0,80,-99.99,,,0.00,weatherlink.com 1.10,2013-01-21 22:27:00,
2013-01-21 17:42:00,56.5,50.0,29.93,SW,235,0.0,-999.0,80,-99.99,,,0.00,weatherlink.com 1.10,2013-01-21 22:42:00,
2013-01-21 17:57:00,56.5,50.0,29.93,SW,236,0.0,-999.0,80,-99.99,,,0.00,weatherlink.com 1.10,2013-01-21 22:57:00,
2013-01-21 18:12:00,56.3,51.0,29.93,WSW,238,0.0,-999.0,81,-99.99,,,0.00,weatherlink.com 1.10,2013-01-21 23:12:00,
2013-01-21 18:28:00,56.1,51.0,29.93,SW,232,0.0,-999.0,82,-99.99,,,0.00,weatherlink.com 1.10,2013-01-21 23:28:00,
2013-01-21 18:43:00,56.0,51.0,29.94,West,269,0.0,-999.0,83,-99.99,,,0.00,weatherlink.com 1.10,2013-01-21 23:43:00,
2013-01-21 18:58:00,55.6,51.0,29.94,WSW,257,0.0,-999.0,85,-99.99,,,0.00,weatherlink.com 1.10,2013-01-21 23:58:00,
2013-01-21 19:13:00,55.2,51.0,29.94,WSW,254,0.0,-999.0,86,-99.99,,,0.00,weatherlink.com 1.10,2013-01-22 00:13:00,
2013-01-21 19:28:00,54.9,51.0,29.94,WSW,246,0.0,-999.0,87,-99.99,,,0.00,weatherlink.com 1.10,2013-01-22 00:28:00,
2013-01-21 19:43:00,54.8,51.0,29.94,WSW,247,0.0,-999.0,88,-99.99,,,0.00,weatherlink.com 1.10,2013-01-22 00:43:00,
2013-01-21 19:58:00,54.6,51.0,29.95,WSW,248,0.0,-999.0,88,-99.99,,,0.00,weatherlink.com 1.10,2013-01-22 00:58:00,
2013-01-21 20:13:00,54.5,51.0,29.94,WSW,249,0.0,-999.0,89,-99.99,,,0.00,weatherlink.com 1.10,2013-01-22 01:13:00,
2013-01-21 20:28:00,54.2,51.0,29.95,WSW,254,0.0,-999.0,90,-99.99,,,0.00,weatherlink.com 1.10,2013-01-22 01:28:00,
2013-01-21 20:43:00,53.7,51.0,29.95,WSW,254,0.0,-999.0,90,-99.99,,,0.00,weatherlink.com 1.10,2013-01-22 01:43:00,
2013-01-21 20:58:00,53.0,50.0,29.95,West,262,0.0,-999.0,88,-99.99,,,0.00,weatherlink.com 1.10,2013-01-22 01:58:00,
2013-01-21 21:13:00,52.9,49.0,29.95,West,277,0.0,-999.0,86,-99.99,,,0.00,weatherlink.com 1.10,2013-01-22 02:13:00,
2013-01-21 21:28:00,52.7,49.0,29.96,WSW,252,0.0,-999.0,86,-99.99,,,0.00,weatherlink.com 1.10,2013-01-22 02:28:00,
2013-01-21 21:43:00,52.3,48.0,29.96,West,264,0.0,-999.0,85,-99.99,,,0.00,weatherlink.com 1.10,2013-01-22 02:43:00,
2013-01-21 21:58:00,51.8,47.0,29.96,West,272,0.0,-999.0,82,-99.99,,,0.00,weatherlink.com 1.10,2013-01-22 02:58:00,
2013-01-21 22:13:00,52.9,48.0,29.96,West,263,0.0,-999.0,82,-99.99,,,0.00,weatherlink.com 1.10,2013-01-22 03:13:00,
2013-01-21 22:28:00,52.9,47.0,29.96,West,274,0.0,-999.0,81,-99.99,,,0.00,weatherlink.com 1.10,2013-01-22 03:28:00,
2013-01-21 22:43:00,52.5,44.0,29.96,West,281,0.0,-999.0,74,-99.99,,,0.00,weatherlink.com 1.10,2013-01-22 03:43:00,
2013-01-21 22:58:00,52.3,45.0,29.96,West,263,0.0,-999.0,75,-99.99,,,0.00,weatherlink.com 1.10,2013-01-22 03:58:00,
2013-01-21 23:13:00,52.4,42.0,29.96,West,266,0.0,-999.0,69,-99.99,,,0.00,weatherlink.com 1.10,2013-01-22 04:13:00,
2013-01-21 23:28:00,52.8,41.0,29.96,West,277,0.0,-999.0,65,-99.99,,,0.00,weatherlink.com 1.10,2013-01-22 04:28:00,
2013-01-21 23:43:00,53.1,40.0,29.96,WSW,244,0.0,-999.0,62,-99.99,,,0.00,weatherlink.com 1.10,2013-01-22 04:43:00,
2013-01-21 23:58:00,52.8,39.0,29.97,West,276,0.0,-999.0,61,-99.99,,,0.00,weatherlink.com 1.10,2013-01-22 04:58:00,